sensor_id;sensor_type;location;lat;lon;timestamp;P1;durP1;ratioP1;P2;durP2;ratioP2
45059;SDS011;30799;49.060;9.312;2023-04-15T00:00:59;1.58;;;0.80;;
45059;SDS011;30799;49.060;9.312;2023-04-15T00:03:26;0.82;;;0.80;;
45059;SDS011;30799;49.060;9.312;2023-04-15T00:05:53;1.27;;;0.80;;
45059;SDS011;30799;49.060;9.312;2023-04-15T00:08:20;1.42;;;1.00;;
45059;SDS011;30799;49.060;9.312;2023-04-15T00:10:47;1.38;;;0.88;;
45059;SDS011;30799;49.060;9.312;2023-04-15T00:13:14;1.70;;;0.80;;
45059;SDS011;30799;49.060;9.312;2023-04-15T00:15:41;0.80;;;0.80;;
45059;SDS011;30799;49.060;9.312;2023-04-15T00:18:08;0.90;;;0.75;;
45059;SDS011;30799;49.060;9.312;2023-04-15T00:20:35;1.58;;;0.88;;
45059;SDS011;30799;49.060;9.312;2023-04-15T00:23:02;1.02;;;0.80;;
45059;SDS011;30799;49.060;9.312;2023-04-15T00:25:29;1.10;;;0.95;;
45059;SDS011;30799;49.060;9.312;2023-04-15T00:27:56;1.10;;;0.80;;
45059;SDS011;30799;49.060;9.312;2023-04-15T00:30:23;2.63;;;0.90;;
45059;SDS011;30799;49.060;9.312;2023-04-15T00:32:51;1.17;;;0.80;;
45059;SDS011;30799;49.060;9.312;2023-04-15T00:35:18;0.70;;;0.60;;
45059;SDS011;30799;49.060;9.312;2023-04-15T00:37:45;1.52;;;0.80;;
45059;SDS011;30799;49.060;9.312;2023-04-15T00:40:12;1.10;;;0.75;;
45059;SDS011;30799;49.060;9.312;2023-04-15T00:42:41;1.38;;;0.70;;
45059;SDS011;30799;49.060;9.312;2023-04-15T00:45:08;1.13;;;1.00;;
45059;SDS011;30799;49.060;9.312;2023-04-15T00:47:36;0.90;;;0.90;;
45059;SDS011;30799;49.060;9.312;2023-04-15T00:50:04;1.40;;;0.88;;
45059;SDS011;30799;49.060;9.312;2023-04-15T00:52:31;0.88;;;0.68;;
45059;SDS011;30799;49.060;9.312;2023-04-15T00:54:58;0.75;;;0.60;;
45059;SDS011;30799;49.060;9.312;2023-04-15T00:57:25;1.23;;;0.70;;
45059;SDS011;30799;49.060;9.312;2023-04-15T00:59:54;1.13;;;0.80;;
45059;SDS011;30799;49.060;9.312;2023-04-15T01:02:21;0.85;;;0.70;;
45059;SDS011;30799;49.060;9.312;2023-04-15T01:04:49;1.00;;;0.90;;
45059;SDS011;30799;49.060;9.312;2023-04-15T01:07:16;1.67;;;0.80;;
45059;SDS011;30799;49.060;9.312;2023-04-15T01:09:43;1.52;;;1.00;;
45059;SDS011;30799;49.060;9.312;2023-04-15T01:12:13;1.73;;;0.90;;
45059;SDS011;30799;49.060;9.312;2023-04-15T01:14:42;0.50;;;0.50;;
45059;SDS011;30799;49.060;9.312;2023-04-15T01:17:08;0.77;;;0.77;;
45059;SDS011;30799;49.060;9.312;2023-04-15T01:19:35;1.80;;;0.88;;
45059;SDS011;30799;49.060;9.312;2023-04-15T01:22:02;1.25;;;0.77;;
45059;SDS011;30799;49.060;9.312;2023-04-15T01:24:30;0.98;;;0.80;;
45059;SDS011;30799;49.060;9.312;2023-04-15T01:26:59;0.73;;;0.70;;
45059;SDS011;30799;49.060;9.312;2023-04-15T01:29:25;0.70;;;0.70;;
45059;SDS011;30799;49.060;9.312;2023-04-15T01:31:53;0.57;;;0.57;;
45059;SDS011;30799;49.060;9.312;2023-04-15T01:34:21;1.10;;;0.82;;
45059;SDS011;30799;49.060;9.312;2023-04-15T01:36:48;1.50;;;0.93;;
45059;SDS011;30799;49.060;9.312;2023-04-15T01:39:14;0.85;;;0.50;;
45059;SDS011;30799;49.060;9.312;2023-04-15T01:41:41;1.27;;;1.00;;
45059;SDS011;30799;49.060;9.312;2023-04-15T01:44:08;0.93;;;0.57;;
45059;SDS011;30799;49.060;9.312;2023-04-15T01:46:35;0.88;;;0.82;;
45059;SDS011;30799;49.060;9.312;2023-04-15T01:49:02;0.93;;;0.90;;
45059;SDS011;30799;49.060;9.312;2023-04-15T01:51:28;1.42;;;0.80;;
45059;SDS011;30799;49.060;9.312;2023-04-15T01:53:55;0.70;;;0.70;;
45059;SDS011;30799;49.060;9.312;2023-04-15T01:56:22;0.90;;;0.70;;
45059;SDS011;30799;49.060;9.312;2023-04-15T01:58:52;0.98;;;0.80;;
45059;SDS011;30799;49.060;9.312;2023-04-15T02:01:18;0.80;;;0.80;;
45059;SDS011;30799;49.060;9.312;2023-04-15T02:03:45;1.20;;;0.90;;
45059;SDS011;30799;49.060;9.312;2023-04-15T02:06:13;0.73;;;0.70;;
45059;SDS011;30799;49.060;9.312;2023-04-15T02:08:40;0.98;;;0.88;;
45059;SDS011;30799;49.060;9.312;2023-04-15T02:11:06;1.05;;;0.70;;
45059;SDS011;30799;49.060;9.312;2023-04-15T02:13:33;0.70;;;0.68;;
45059;SDS011;30799;49.060;9.312;2023-04-15T02:16:00;0.70;;;0.70;;
45059;SDS011;30799;49.060;9.312;2023-04-15T02:18:27;0.52;;;0.52;;
45059;SDS011;30799;49.060;9.312;2023-04-15T02:20:54;0.95;;;0.80;;
45059;SDS011;30799;49.060;9.312;2023-04-15T02:23:22;0.60;;;0.60;;
45059;SDS011;30799;49.060;9.312;2023-04-15T02:25:49;1.38;;;0.80;;
45059;SDS011;30799;49.060;9.312;2023-04-15T02:28:19;0.80;;;0.80;;
45059;SDS011;30799;49.060;9.312;2023-04-15T02:30:47;1.40;;;0.90;;
45059;SDS011;30799;49.060;9.312;2023-04-15T02:33:18;1.15;;;0.70;;
45059;SDS011;30799;49.060;9.312;2023-04-15T02:35:45;0.77;;;0.73;;
45059;SDS011;30799;49.060;9.312;2023-04-15T02:38:12;0.95;;;0.70;;
45059;SDS011;30799;49.060;9.312;2023-04-15T02:40:39;0.85;;;0.70;;
45059;SDS011;30799;49.060;9.312;2023-04-15T02:43:06;0.73;;;0.50;;
45059;SDS011;30799;49.060;9.312;2023-04-15T02:45:33;0.50;;;0.50;;
45059;SDS011;30799;49.060;9.312;2023-04-15T02:48:00;0.93;;;0.75;;
45059;SDS011;30799;49.060;9.312;2023-04-15T02:50:31;0.68;;;0.60;;
45059;SDS011;30799;49.060;9.312;2023-04-15T02:52:58;2.35;;;0.75;;
45059;SDS011;30799;49.060;9.312;2023-04-15T02:55:27;1.40;;;0.80;;
45059;SDS011;30799;49.060;9.312;2023-04-15T02:57:54;0.70;;;0.70;;
45059;SDS011;30799;49.060;9.312;2023-04-15T03:00:20;0.68;;;0.68;;
45059;SDS011;30799;49.060;9.312;2023-04-15T03:02:47;0.80;;;0.60;;
45059;SDS011;30799;49.060;9.312;2023-04-15T03:05:17;0.70;;;0.60;;
45059;SDS011;30799;49.060;9.312;2023-04-15T03:07:44;0.60;;;0.60;;
45059;SDS011;30799;49.060;9.312;2023-04-15T03:10:10;1.50;;;0.60;;
45059;SDS011;30799;49.060;9.312;2023-04-15T03:12:37;0.90;;;0.70;;
45059;SDS011;30799;49.060;9.312;2023-04-15T03:15:04;1.05;;;0.70;;
45059;SDS011;30799;49.060;9.312;2023-04-15T03:17:32;0.70;;;0.50;;
45059;SDS011;30799;49.060;9.312;2023-04-15T03:20:00;0.85;;;0.52;;
45059;SDS011;30799;49.060;9.312;2023-04-15T03:22:29;0.65;;;0.65;;
45059;SDS011;30799;49.060;9.312;2023-04-15T03:24:56;1.17;;;0.60;;
45059;SDS011;30799;49.060;9.312;2023-04-15T03:27:24;0.60;;;0.50;;
45059;SDS011;30799;49.060;9.312;2023-04-15T03:29:51;0.70;;;0.60;;
45059;SDS011;30799;49.060;9.312;2023-04-15T03:32:17;0.93;;;0.73;;
45059;SDS011;30799;49.060;9.312;2023-04-15T03:34:44;0.73;;;0.50;;
45059;SDS011;30799;49.060;9.312;2023-04-15T03:37:11;0.85;;;0.68;;
45059;SDS011;30799;49.060;9.312;2023-04-15T03:39:37;0.98;;;0.60;;
45059;SDS011;30799;49.060;9.312;2023-04-15T03:42:04;1.42;;;0.70;;
45059;SDS011;30799;49.060;9.312;2023-04-15T03:44:31;0.93;;;0.60;;
45059;SDS011;30799;49.060;9.312;2023-04-15T03:46:58;0.50;;;0.50;;
45059;SDS011;30799;49.060;9.312;2023-04-15T03:49:24;0.73;;;0.60;;
45059;SDS011;30799;49.060;9.312;2023-04-15T03:51:51;0.50;;;0.50;;
45059;SDS011;30799;49.060;9.312;2023-04-15T03:54:17;0.98;;;0.50;;
45059;SDS011;30799;49.060;9.312;2023-04-15T03:56:44;0.95;;;0.70;;
45059;SDS011;30799;49.060;9.312;2023-04-15T03:59:11;1.00;;;0.73;;
45059;SDS011;30799;49.060;9.312;2023-04-15T04:01:37;0.63;;;0.60;;
45059;SDS011;30799;49.060;9.312;2023-04-15T04:04:04;0.50;;;0.50;;
45059;SDS011;30799;49.060;9.312;2023-04-15T04:06:30;0.80;;;0.70;;
45059;SDS011;30799;49.060;9.312;2023-04-15T04:08:57;0.73;;;0.50;;
45059;SDS011;30799;49.060;9.312;2023-04-15T04:11:24;0.63;;;0.47;;
45059;SDS011;30799;49.060;9.312;2023-04-15T04:13:51;1.30;;;0.70;;
45059;SDS011;30799;49.060;9.312;2023-04-15T04:16:18;1.15;;;0.90;;
45059;SDS011;30799;49.060;9.312;2023-04-15T04:18:45;1.42;;;0.80;;
45059;SDS011;30799;49.060;9.312;2023-04-15T04:21:11;0.63;;;0.63;;
45059;SDS011;30799;49.060;9.312;2023-04-15T04:23:38;0.77;;;0.68;;
45059;SDS011;30799;49.060;9.312;2023-04-15T04:26:05;1.17;;;0.73;;
45059;SDS011;30799;49.060;9.312;2023-04-15T04:28:32;0.65;;;0.57;;
45059;SDS011;30799;49.060;9.312;2023-04-15T04:31:00;1.65;;;0.90;;
45059;SDS011;30799;49.060;9.312;2023-04-15T04:33:26;0.55;;;0.55;;
45059;SDS011;30799;49.060;9.312;2023-04-15T04:35:53;3.17;;;0.70;;
45059;SDS011;30799;49.060;9.312;2023-04-15T04:38:20;1.75;;;0.50;;
45059;SDS011;30799;49.060;9.312;2023-04-15T04:40:47;2.25;;;0.80;;
45059;SDS011;30799;49.060;9.312;2023-04-15T04:43:13;2.55;;;0.80;;
45059;SDS011;30799;49.060;9.312;2023-04-15T04:45:41;0.80;;;0.73;;
45059;SDS011;30799;49.060;9.312;2023-04-15T04:48:08;2.33;;;0.90;;
45059;SDS011;30799;49.060;9.312;2023-04-15T04:50:37;1.05;;;0.68;;
45059;SDS011;30799;49.060;9.312;2023-04-15T04:53:04;2.90;;;1.02;;
45059;SDS011;30799;49.060;9.312;2023-04-15T04:55:31;1.42;;;0.90;;
45059;SDS011;30799;49.060;9.312;2023-04-15T04:57:58;2.72;;;1.10;;
45059;SDS011;30799;49.060;9.312;2023-04-15T05:00:24;7.57;;;1.70;;
45059;SDS011;30799;49.060;9.312;2023-04-15T05:02:51;4.03;;;1.20;;
45059;SDS011;30799;49.060;9.312;2023-04-15T05:05:18;3.45;;;1.05;;
45059;SDS011;30799;49.060;9.312;2023-04-15T05:07:44;3.45;;;1.17;;
45059;SDS011;30799;49.060;9.312;2023-04-15T05:10:12;2.00;;;1.10;;
45059;SDS011;30799;49.060;9.312;2023-04-15T05:12:40;8.15;;;1.42;;
45059;SDS011;30799;49.060;9.312;2023-04-15T05:15:07;2.33;;;0.90;;
45059;SDS011;30799;49.060;9.312;2023-04-15T05:17:34;2.83;;;1.30;;
45059;SDS011;30799;49.060;9.312;2023-04-15T05:20:01;4.57;;;1.23;;
45059;SDS011;30799;49.060;9.312;2023-04-15T05:22:28;4.07;;;1.20;;
45059;SDS011;30799;49.060;9.312;2023-04-15T05:24:55;7.60;;;1.40;;
45059;SDS011;30799;49.060;9.312;2023-04-15T05:27:22;4.68;;;1.20;;
45059;SDS011;30799;49.060;9.312;2023-04-15T05:29:49;5.13;;;1.15;;
45059;SDS011;30799;49.060;9.312;2023-04-15T05:32:16;7.97;;;1.60;;
45059;SDS011;30799;49.060;9.312;2023-04-15T05:34:42;5.18;;;1.35;;
45059;SDS011;30799;49.060;9.312;2023-04-15T05:37:09;4.57;;;1.20;;
45059;SDS011;30799;49.060;9.312;2023-04-15T05:39:35;4.20;;;1.20;;
45059;SDS011;30799;49.060;9.312;2023-04-15T05:42:02;4.47;;;1.10;;
45059;SDS011;30799;49.060;9.312;2023-04-15T05:44:30;6.00;;;1.17;;
45059;SDS011;30799;49.060;9.312;2023-04-15T05:46:57;6.05;;;1.40;;
45059;SDS011;30799;49.060;9.312;2023-04-15T05:49:24;7.60;;;1.17;;
45059;SDS011;30799;49.060;9.312;2023-04-15T05:51:51;2.33;;;1.20;;
45059;SDS011;30799;49.060;9.312;2023-04-15T05:54:17;3.17;;;1.25;;
45059;SDS011;30799;49.060;9.312;2023-04-15T05:56:45;3.47;;;1.05;;
45059;SDS011;30799;49.060;9.312;2023-04-15T05:59:12;4.22;;;1.40;;
45059;SDS011;30799;49.060;9.312;2023-04-15T06:01:38;2.47;;;1.00;;
45059;SDS011;30799;49.060;9.312;2023-04-15T06:04:05;3.17;;;1.10;;
45059;SDS011;30799;49.060;9.312;2023-04-15T06:06:32;1.95;;;0.98;;
45059;SDS011;30799;49.060;9.312;2023-04-15T06:08:59;1.52;;;1.10;;
45059;SDS011;30799;49.060;9.312;2023-04-15T06:11:26;3.60;;;1.30;;
45059;SDS011;30799;49.060;9.312;2023-04-15T06:13:53;3.20;;;1.10;;
45059;SDS011;30799;49.060;9.312;2023-04-15T06:16:20;2.50;;;1.15;;
45059;SDS011;30799;49.060;9.312;2023-04-15T06:18:46;6.65;;;1.25;;
45059;SDS011;30799;49.060;9.312;2023-04-15T06:21:14;3.22;;;1.33;;
45059;SDS011;30799;49.060;9.312;2023-04-15T06:23:41;4.40;;;1.50;;
45059;SDS011;30799;49.060;9.312;2023-04-15T06:26:07;3.53;;;1.33;;
45059;SDS011;30799;49.060;9.312;2023-04-15T06:28:34;3.70;;;1.25;;
45059;SDS011;30799;49.060;9.312;2023-04-15T06:31:01;2.22;;;1.25;;
45059;SDS011;30799;49.060;9.312;2023-04-15T06:33:28;3.67;;;1.83;;
45059;SDS011;30799;49.060;9.312;2023-04-15T06:35:54;2.67;;;1.40;;
45059;SDS011;30799;49.060;9.312;2023-04-15T06:38:21;3.08;;;1.60;;
45059;SDS011;30799;49.060;9.312;2023-04-15T06:40:48;2.03;;;1.45;;
45059;SDS011;30799;49.060;9.312;2023-04-15T06:43:15;3.10;;;1.40;;
45059;SDS011;30799;49.060;9.312;2023-04-15T06:45:41;2.08;;;1.30;;
45059;SDS011;30799;49.060;9.312;2023-04-15T06:48:08;3.40;;;1.40;;
45059;SDS011;30799;49.060;9.312;2023-04-15T06:50:34;3.60;;;1.40;;
45059;SDS011;30799;49.060;9.312;2023-04-15T06:53:01;1.27;;;1.17;;
45059;SDS011;30799;49.060;9.312;2023-04-15T06:55:28;2.83;;;1.30;;
45059;SDS011;30799;49.060;9.312;2023-04-15T06:57:55;3.45;;;1.35;;
45059;SDS011;30799;49.060;9.312;2023-04-15T07:00:21;3.08;;;1.20;;
45059;SDS011;30799;49.060;9.312;2023-04-15T07:02:48;3.28;;;1.50;;
45059;SDS011;30799;49.060;9.312;2023-04-15T07:05:15;2.60;;;1.20;;
45059;SDS011;30799;49.060;9.312;2023-04-15T07:07:42;2.10;;;1.40;;
45059;SDS011;30799;49.060;9.312;2023-04-15T07:10:08;4.38;;;1.50;;
45059;SDS011;30799;49.060;9.312;2023-04-15T07:12:36;2.40;;;1.45;;
45059;SDS011;30799;49.060;9.312;2023-04-15T07:15:03;1.65;;;1.00;;
45059;SDS011;30799;49.060;9.312;2023-04-15T07:17:31;3.30;;;1.38;;
45059;SDS011;30799;49.060;9.312;2023-04-15T07:19:58;1.58;;;1.40;;
45059;SDS011;30799;49.060;9.312;2023-04-15T07:22:25;1.95;;;1.20;;
45059;SDS011;30799;49.060;9.312;2023-04-15T07:24:51;2.05;;;1.30;;
45059;SDS011;30799;49.060;9.312;2023-04-15T07:27:18;1.75;;;1.13;;
45059;SDS011;30799;49.060;9.312;2023-04-15T07:29:45;1.98;;;1.13;;
45059;SDS011;30799;49.060;9.312;2023-04-15T07:32:11;2.25;;;1.33;;
45059;SDS011;30799;49.060;9.312;2023-04-15T07:34:38;1.25;;;1.13;;
45059;SDS011;30799;49.060;9.312;2023-04-15T07:37:05;2.47;;;1.20;;
45059;SDS011;30799;49.060;9.312;2023-04-15T07:39:31;1.98;;;1.10;;
45059;SDS011;30799;49.060;9.312;2023-04-15T07:41:58;1.92;;;1.30;;
45059;SDS011;30799;49.060;9.312;2023-04-15T07:44:25;3.63;;;1.65;;
45059;SDS011;30799;49.060;9.312;2023-04-15T07:46:52;1.98;;;1.27;;
45059;SDS011;30799;49.060;9.312;2023-04-15T07:49:19;2.22;;;1.30;;
45059;SDS011;30799;49.060;9.312;2023-04-15T07:51:46;3.22;;;1.20;;
45059;SDS011;30799;49.060;9.312;2023-04-15T07:54:14;2.42;;;1.25;;
45059;SDS011;30799;49.060;9.312;2023-04-15T07:56:41;2.67;;;1.58;;
45059;SDS011;30799;49.060;9.312;2023-04-15T07:59:08;1.88;;;1.15;;
45059;SDS011;30799;49.060;9.312;2023-04-15T08:01:35;1.52;;;1.30;;
45059;SDS011;30799;49.060;9.312;2023-04-15T08:04:02;1.38;;;1.13;;
45059;SDS011;30799;49.060;9.312;2023-04-15T08:06:29;1.65;;;1.40;;
45059;SDS011;30799;49.060;9.312;2023-04-15T08:08:56;1.52;;;1.20;;
45059;SDS011;30799;49.060;9.312;2023-04-15T08:11:23;2.58;;;1.73;;
45059;SDS011;30799;49.060;9.312;2023-04-15T08:13:50;2.17;;;1.35;;
45059;SDS011;30799;49.060;9.312;2023-04-15T08:16:24;1.70;;;1.48;;
45059;SDS011;30799;49.060;9.312;2023-04-15T08:18:54;2.33;;;1.50;;
45059;SDS011;30799;49.060;9.312;2023-04-15T08:21:21;1.75;;;1.38;;
45059;SDS011;30799;49.060;9.312;2023-04-15T08:23:49;3.13;;;1.48;;
45059;SDS011;30799;49.060;9.312;2023-04-15T08:26:17;1.67;;;1.30;;
45059;SDS011;30799;49.060;9.312;2023-04-15T08:28:45;2.88;;;1.38;;
45059;SDS011;30799;49.060;9.312;2023-04-15T08:31:13;1.98;;;1.40;;
45059;SDS011;30799;49.060;9.312;2023-04-15T08:33:40;1.83;;;1.20;;
45059;SDS011;30799;49.060;9.312;2023-04-15T08:36:07;2.03;;;1.20;;
45059;SDS011;30799;49.060;9.312;2023-04-15T08:38:34;2.03;;;1.25;;
45059;SDS011;30799;49.060;9.312;2023-04-15T08:41:02;2.50;;;1.27;;
45059;SDS011;30799;49.060;9.312;2023-04-15T08:43:33;2.47;;;1.40;;
45059;SDS011;30799;49.060;9.312;2023-04-15T08:46:02;1.55;;;1.30;;
45059;SDS011;30799;49.060;9.312;2023-04-15T08:48:31;3.13;;;1.60;;
45059;SDS011;30799;49.060;9.312;2023-04-15T08:51:00;2.40;;;1.30;;
45059;SDS011;30799;49.060;9.312;2023-04-15T08:53:28;1.13;;;1.00;;
45059;SDS011;30799;49.060;9.312;2023-04-15T08:55:56;1.45;;;1.33;;
45059;SDS011;30799;49.060;9.312;2023-04-15T08:58:24;2.75;;;1.38;;
45059;SDS011;30799;49.060;9.312;2023-04-15T09:00:51;1.75;;;1.42;;
45059;SDS011;30799;49.060;9.312;2023-04-15T09:03:18;2.28;;;1.40;;
45059;SDS011;30799;49.060;9.312;2023-04-15T09:05:47;2.00;;;1.25;;
45059;SDS011;30799;49.060;9.312;2023-04-15T09:08:16;1.70;;;1.08;;
45059;SDS011;30799;49.060;9.312;2023-04-15T09:10:43;1.40;;;1.10;;
45059;SDS011;30799;49.060;9.312;2023-04-15T09:13:10;1.33;;;1.20;;
45059;SDS011;30799;49.060;9.312;2023-04-15T09:15:37;2.65;;;1.30;;
45059;SDS011;30799;49.060;9.312;2023-04-15T09:18:04;2.83;;;1.38;;
45059;SDS011;30799;49.060;9.312;2023-04-15T09:20:40;2.30;;;1.30;;
45059;SDS011;30799;49.060;9.312;2023-04-15T09:23:11;2.92;;;1.42;;
45059;SDS011;30799;49.060;9.312;2023-04-15T09:25:39;3.67;;;1.60;;
45059;SDS011;30799;49.060;9.312;2023-04-15T09:28:10;1.98;;;1.20;;
45059;SDS011;30799;49.060;9.312;2023-04-15T09:30:37;3.50;;;1.20;;
45059;SDS011;30799;49.060;9.312;2023-04-15T09:33:04;1.58;;;1.10;;
45059;SDS011;30799;49.060;9.312;2023-04-15T09:35:33;2.00;;;1.27;;
45059;SDS011;30799;49.060;9.312;2023-04-15T09:38:07;1.90;;;1.20;;
45059;SDS011;30799;49.060;9.312;2023-04-15T09:43:07;1.77;;;1.15;;
45059;SDS011;30799;49.060;9.312;2023-04-15T09:45:35;1.67;;;1.10;;
45059;SDS011;30799;49.060;9.312;2023-04-15T09:51:01;1.63;;;1.10;;
45059;SDS011;30799;49.060;9.312;2023-04-15T09:53:28;1.40;;;1.30;;
45059;SDS011;30799;49.060;9.312;2023-04-15T09:55:57;1.50;;;1.33;;
45059;SDS011;30799;49.060;9.312;2023-04-15T09:58:29;1.60;;;1.23;;
45059;SDS011;30799;49.060;9.312;2023-04-15T10:00:57;1.25;;;1.10;;
45059;SDS011;30799;49.060;9.312;2023-04-15T10:03:27;1.83;;;1.35;;
45059;SDS011;30799;49.060;9.312;2023-04-15T10:05:58;1.75;;;1.38;;
45059;SDS011;30799;49.060;9.312;2023-04-15T10:08:26;1.85;;;1.17;;
45059;SDS011;30799;49.060;9.312;2023-04-15T10:10:54;1.48;;;1.38;;
45059;SDS011;30799;49.060;9.312;2023-04-15T10:13:22;1.30;;;1.20;;
45059;SDS011;30799;49.060;9.312;2023-04-15T10:15:52;1.52;;;1.15;;
45059;SDS011;30799;49.060;9.312;2023-04-15T10:18:22;1.52;;;1.00;;
45059;SDS011;30799;49.060;9.312;2023-04-15T10:20:51;1.95;;;1.35;;
45059;SDS011;30799;49.060;9.312;2023-04-15T10:23:19;1.60;;;1.20;;
45059;SDS011;30799;49.060;9.312;2023-04-15T10:25:48;1.15;;;0.90;;
45059;SDS011;30799;49.060;9.312;2023-04-15T10:28:16;3.20;;;1.50;;
45059;SDS011;30799;49.060;9.312;2023-04-15T10:30:44;1.15;;;1.05;;
45059;SDS011;30799;49.060;9.312;2023-04-15T10:33:13;1.40;;;1.30;;
45059;SDS011;30799;49.060;9.312;2023-04-15T10:35:41;1.50;;;1.10;;
45059;SDS011;30799;49.060;9.312;2023-04-15T10:41:18;2.42;;;1.30;;
45059;SDS011;30799;49.060;9.312;2023-04-15T10:43:53;1.27;;;1.17;;
45059;SDS011;30799;49.060;9.312;2023-04-15T10:49:13;1.42;;;1.10;;
45059;SDS011;30799;49.060;9.312;2023-04-15T10:51:42;1.88;;;1.30;;
45059;SDS011;30799;49.060;9.312;2023-04-15T10:54:15;2.90;;;1.17;;
45059;SDS011;30799;49.060;9.312;2023-04-15T10:56:51;1.27;;;1.08;;
45059;SDS011;30799;49.060;9.312;2023-04-15T10:59:30;1.80;;;1.38;;
45059;SDS011;30799;49.060;9.312;2023-04-15T11:02:37;1.77;;;1.15;;
45059;SDS011;30799;49.060;9.312;2023-04-15T11:05:09;1.40;;;1.15;;
45059;SDS011;30799;49.060;9.312;2023-04-15T11:12:43;2.88;;;1.30;;
45059;SDS011;30799;49.060;9.312;2023-04-15T11:21:03;1.30;;;1.20;;
45059;SDS011;30799;49.060;9.312;2023-04-15T11:23:32;1.75;;;1.20;;
45059;SDS011;30799;49.060;9.312;2023-04-15T11:26:04;1.65;;;1.00;;
45059;SDS011;30799;49.060;9.312;2023-04-15T11:28:34;1.83;;;1.27;;
45059;SDS011;30799;49.060;9.312;2023-04-15T11:31:14;1.30;;;1.20;;
45059;SDS011;30799;49.060;9.312;2023-04-15T11:33:44;1.95;;;1.13;;
45059;SDS011;30799;49.060;9.312;2023-04-15T11:36:12;1.45;;;1.10;;
45059;SDS011;30799;49.060;9.312;2023-04-15T11:38:42;1.42;;;1.20;;
45059;SDS011;30799;49.060;9.312;2023-04-15T11:41:10;1.35;;;0.90;;
45059;SDS011;30799;49.060;9.312;2023-04-15T11:43:37;1.90;;;1.33;;
45059;SDS011;30799;49.060;9.312;2023-04-15T11:46:03;1.33;;;0.90;;
45059;SDS011;30799;49.060;9.312;2023-04-15T11:48:31;1.42;;;0.90;;
45059;SDS011;30799;49.060;9.312;2023-04-15T11:51:03;1.42;;;1.02;;
45059;SDS011;30799;49.060;9.312;2023-04-15T11:53:38;1.05;;;0.98;;
45059;SDS011;30799;49.060;9.312;2023-04-15T11:56:16;1.42;;;1.17;;
45059;SDS011;30799;49.060;9.312;2023-04-15T11:58:44;1.38;;;1.15;;
45059;SDS011;30799;49.060;9.312;2023-04-15T12:01:12;1.05;;;0.90;;
45059;SDS011;30799;49.060;9.312;2023-04-15T12:03:39;1.20;;;1.05;;
45059;SDS011;30799;49.060;9.312;2023-04-15T12:06:16;0.90;;;0.90;;
45059;SDS011;30799;49.060;9.312;2023-04-15T12:08:58;1.73;;;1.10;;
45059;SDS011;30799;49.060;9.312;2023-04-15T12:11:29;1.52;;;0.82;;
45059;SDS011;30799;49.060;9.312;2023-04-15T12:13:59;1.98;;;1.20;;
45059;SDS011;30799;49.060;9.312;2023-04-15T12:16:33;2.28;;;1.20;;
45059;SDS011;30799;49.060;9.312;2023-04-15T12:19:15;1.15;;;0.90;;
45059;SDS011;30799;49.060;9.312;2023-04-15T12:21:48;1.65;;;0.95;;
45059;SDS011;30799;49.060;9.312;2023-04-15T12:24:18;2.58;;;1.15;;
45059;SDS011;30799;49.060;9.312;2023-04-15T12:26:54;1.25;;;0.80;;
45059;SDS011;30799;49.060;9.312;2023-04-15T12:29:24;1.30;;;1.10;;
45059;SDS011;30799;49.060;9.312;2023-04-15T12:31:54;1.67;;;1.20;;
45059;SDS011;30799;49.060;9.312;2023-04-15T12:34:26;1.40;;;1.20;;
45059;SDS011;30799;49.060;9.312;2023-04-15T12:36:57;1.58;;;1.10;;
45059;SDS011;30799;49.060;9.312;2023-04-15T12:39:26;0.90;;;0.80;;
45059;SDS011;30799;49.060;9.312;2023-04-15T12:41:56;0.90;;;0.90;;
45059;SDS011;30799;49.060;9.312;2023-04-15T12:44:23;1.02;;;0.80;;
45059;SDS011;30799;49.060;9.312;2023-04-15T12:46:50;0.82;;;0.82;;
45059;SDS011;30799;49.060;9.312;2023-04-15T12:49:19;0.90;;;0.85;;
45059;SDS011;30799;49.060;9.312;2023-04-15T12:51:50;1.63;;;0.80;;
45059;SDS011;30799;49.060;9.312;2023-04-15T12:54:18;0.70;;;0.70;;
45059;SDS011;30799;49.060;9.312;2023-04-15T12:56:45;1.85;;;1.15;;
45059;SDS011;30799;49.060;9.312;2023-04-15T12:59:13;1.20;;;0.70;;
45059;SDS011;30799;49.060;9.312;2023-04-15T13:01:40;0.75;;;0.75;;
45059;SDS011;30799;49.060;9.312;2023-04-15T13:04:07;0.98;;;0.90;;
45059;SDS011;30799;49.060;9.312;2023-04-15T13:06:34;1.17;;;0.88;;
45059;SDS011;30799;49.060;9.312;2023-04-15T13:09:02;0.95;;;0.85;;
45059;SDS011;30799;49.060;9.312;2023-04-15T13:11:31;0.98;;;0.70;;
45059;SDS011;30799;49.060;9.312;2023-04-15T13:13:59;1.65;;;1.08;;
45059;SDS011;30799;49.060;9.312;2023-04-15T13:16:27;1.23;;;0.80;;
45059;SDS011;30799;49.060;9.312;2023-04-15T13:18:54;0.95;;;0.82;;
45059;SDS011;30799;49.060;9.312;2023-04-15T13:21:20;0.93;;;0.70;;
45059;SDS011;30799;49.060;9.312;2023-04-15T13:23:48;1.15;;;0.93;;
45059;SDS011;30799;49.060;9.312;2023-04-15T13:26:17;1.05;;;0.80;;
45059;SDS011;30799;49.060;9.312;2023-04-15T13:28:44;1.10;;;1.00;;
45059;SDS011;30799;49.060;9.312;2023-04-15T13:31:11;1.02;;;0.88;;
45059;SDS011;30799;49.060;9.312;2023-04-15T13:33:38;1.13;;;0.90;;
45059;SDS011;30799;49.060;9.312;2023-04-15T13:36:05;1.38;;;0.85;;
45059;SDS011;30799;49.060;9.312;2023-04-15T13:38:32;5.35;;;1.10;;
45059;SDS011;30799;49.060;9.312;2023-04-15T13:40:59;3.95;;;1.02;;
45059;SDS011;30799;49.060;9.312;2023-04-15T13:43:25;3.42;;;0.93;;
45059;SDS011;30799;49.060;9.312;2023-04-15T13:45:52;4.07;;;1.10;;
45059;SDS011;30799;49.060;9.312;2023-04-15T13:48:19;4.63;;;0.90;;
45059;SDS011;30799;49.060;9.312;2023-04-15T13:50:45;2.45;;;0.80;;
45059;SDS011;30799;49.060;9.312;2023-04-15T13:53:12;7.65;;;1.02;;
45059;SDS011;30799;49.060;9.312;2023-04-15T13:55:39;4.82;;;0.90;;
45059;SDS011;30799;49.060;9.312;2023-04-15T13:58:07;2.80;;;1.10;;
45059;SDS011;30799;49.060;9.312;2023-04-15T14:00:34;0.95;;;0.80;;
45059;SDS011;30799;49.060;9.312;2023-04-15T14:03:01;4.85;;;0.95;;
45059;SDS011;30799;49.060;9.312;2023-04-15T14:05:28;4.18;;;0.85;;
45059;SDS011;30799;49.060;9.312;2023-04-15T14:07:55;0.93;;;0.60;;
45059;SDS011;30799;49.060;9.312;2023-04-15T14:10:22;2.92;;;0.80;;
45059;SDS011;30799;49.060;9.312;2023-04-15T14:12:48;2.72;;;1.00;;
45059;SDS011;30799;49.060;9.312;2023-04-15T14:15:15;3.65;;;0.90;;
45059;SDS011;30799;49.060;9.312;2023-04-15T14:17:42;2.78;;;0.88;;
45059;SDS011;30799;49.060;9.312;2023-04-15T14:20:09;6.70;;;1.17;;
45059;SDS011;30799;49.060;9.312;2023-04-15T14:22:36;4.85;;;1.00;;
45059;SDS011;30799;49.060;9.312;2023-04-15T14:25:03;5.53;;;1.20;;
45059;SDS011;30799;49.060;9.312;2023-04-15T14:27:30;4.68;;;1.15;;
45059;SDS011;30799;49.060;9.312;2023-04-15T14:29:56;3.10;;;1.00;;
45059;SDS011;30799;49.060;9.312;2023-04-15T14:32:24;3.53;;;0.80;;
45059;SDS011;30799;49.060;9.312;2023-04-15T14:34:51;6.18;;;1.00;;
45059;SDS011;30799;49.060;9.312;2023-04-15T14:37:18;3.65;;;0.90;;
45059;SDS011;30799;49.060;9.312;2023-04-15T14:39:45;3.35;;;1.00;;
45059;SDS011;30799;49.060;9.312;2023-04-15T14:42:11;2.67;;;0.90;;
45059;SDS011;30799;49.060;9.312;2023-04-15T14:44:38;5.68;;;1.25;;
45059;SDS011;30799;49.060;9.312;2023-04-15T14:47:05;6.22;;;1.00;;
45059;SDS011;30799;49.060;9.312;2023-04-15T14:49:32;1.55;;;0.90;;
45059;SDS011;30799;49.060;9.312;2023-04-15T14:51:58;3.05;;;1.00;;
45059;SDS011;30799;49.060;9.312;2023-04-15T14:54:25;3.28;;;0.98;;
45059;SDS011;30799;49.060;9.312;2023-04-15T14:56:52;3.55;;;0.80;;
45059;SDS011;30799;49.060;9.312;2023-04-15T14:59:18;1.05;;;0.73;;
45059;SDS011;30799;49.060;9.312;2023-04-15T15:01:45;5.90;;;1.23;;
45059;SDS011;30799;49.060;9.312;2023-04-15T15:04:12;4.28;;;0.90;;
45059;SDS011;30799;49.060;9.312;2023-04-15T15:06:39;6.85;;;1.02;;
45059;SDS011;30799;49.060;9.312;2023-04-15T15:09:06;4.55;;;0.90;;
45059;SDS011;30799;49.060;9.312;2023-04-15T15:11:33;4.82;;;1.38;;
45059;SDS011;30799;49.060;9.312;2023-04-15T15:14:00;4.05;;;1.40;;